createdAt,value
2022-08-30T00:02:10.770Z,12.60
2022-08-30T00:04:37.662Z,12.60
2022-08-30T00:07:04.794Z,12.60
2022-08-30T00:09:32.644Z,12.60
2022-08-30T00:11:59.623Z,12.50
2022-08-30T00:14:27.521Z,12.50
2022-08-30T00:16:54.444Z,12.50
2022-08-30T00:19:21.300Z,12.50
2022-08-30T00:21:48.146Z,12.40
2022-08-30T00:24:15.281Z,12.40
2022-08-30T00:26:42.101Z,12.40
2022-08-30T00:29:08.884Z,12.40
2022-08-30T00:31:35.825Z,12.40
2022-08-30T00:34:02.889Z,12.40
2022-08-30T00:36:29.685Z,12.40
2022-08-30T00:38:56.589Z,12.40
2022-08-30T00:41:23.482Z,12.40
2022-08-30T00:43:50.346Z,12.40
2022-08-30T00:46:17.251Z,12.40
2022-08-30T00:48:47.258Z,12.40
2022-08-30T00:51:15.565Z,12.50
2022-08-30T00:53:48.187Z,12.50
2022-08-30T00:56:15.477Z,12.50
2022-08-30T00:58:45.504Z,12.60
2022-08-30T01:01:13.028Z,12.60
2022-08-30T01:03:40.824Z,12.70
2022-08-30T01:06:07.936Z,12.70
2022-08-30T01:08:35.314Z,12.70
2022-08-30T01:11:03.736Z,12.70
2022-08-30T01:13:31.242Z,12.70
2022-08-30T01:16:00.158Z,12.70
2022-08-30T01:18:27.723Z,12.80
2022-08-30T01:21:28.992Z,12.80
2022-08-30T01:23:58.891Z,12.80
2022-08-30T01:26:27.794Z,12.70
2022-08-30T01:28:59.583Z,12.70
2022-08-30T01:31:27.969Z,12.70
2022-08-30T01:33:54.940Z,12.70
2022-08-30T01:36:21.914Z,12.70
2022-08-30T01:38:56.889Z,12.70
2022-08-30T01:41:30.264Z,12.70
2022-08-30T01:43:58.697Z,12.70
2022-08-30T01:46:29.293Z,12.70
2022-08-30T01:48:58.072Z,12.70
2022-08-30T01:51:27.519Z,12.70
2022-08-30T01:53:54.930Z,12.70
2022-08-30T01:56:22.824Z,12.70
2022-08-30T01:58:49.885Z,12.60
2022-08-30T02:01:19.801Z,12.60
2022-08-30T02:03:48.490Z,12.60
2022-08-30T02:06:18.408Z,12.60
2022-08-30T02:08:45.507Z,12.50
2022-08-30T02:11:12.817Z,12.50
2022-08-30T02:13:40.967Z,12.50
2022-08-30T02:16:09.958Z,12.40
2022-08-30T02:18:37.640Z,12.40
2022-08-30T02:21:04.788Z,12.40
2022-08-30T02:23:31.612Z,12.40
2022-08-30T02:25:58.936Z,12.40
2022-08-30T02:28:26.016Z,12.40
2022-08-30T02:30:53.640Z,12.40
2022-08-30T02:33:20.582Z,12.40
2022-08-30T02:35:47.708Z,12.40
2022-08-30T02:38:14.700Z,12.40
2022-08-30T02:40:41.875Z,12.40
2022-08-30T02:43:08.875Z,12.40
2022-08-30T02:45:35.773Z,12.40
2022-08-30T02:48:02.971Z,12.40
2022-08-30T02:50:29.785Z,12.40
2022-08-30T02:52:57.144Z,12.40
2022-08-30T02:55:24.042Z,12.40
2022-08-30T02:57:50.824Z,12.40
2022-08-30T03:00:20.324Z,12.40
2022-08-30T03:02:47.382Z,12.40
2022-08-30T03:05:15.193Z,12.30
2022-08-30T03:07:42.343Z,12.30
2022-08-30T03:10:10.896Z,12.30
2022-08-30T03:12:38.192Z,12.30
2022-08-30T03:15:06.578Z,12.30
2022-08-30T03:17:33.483Z,12.30
2022-08-30T03:20:02.261Z,12.30
2022-08-30T03:22:29.395Z,12.30
2022-08-30T03:25:01.367Z,12.30
2022-08-30T03:27:29.210Z,12.30
2022-08-30T03:29:56.467Z,12.30
2022-08-30T03:32:23.594Z,12.30
2022-08-30T03:34:50.452Z,12.30
2022-08-30T03:37:17.456Z,12.20
2022-08-30T03:39:45.581Z,12.20
2022-08-30T03:42:12.712Z,12.20
2022-08-30T03:44:39.919Z,12.20
2022-08-30T03:47:08.436Z,12.20
2022-08-30T03:49:35.236Z,12.10
2022-08-30T03:52:02.269Z,12.10
2022-08-30T03:54:29.137Z,12.10
2022-08-30T03:56:56.302Z,12.10
2022-08-30T03:59:23.576Z,12.10
2022-08-30T04:01:50.522Z,12.10
2022-08-30T04:04:20.921Z,12.10
2022-08-30T04:06:49.219Z,12.10
2022-08-30T04:09:16.406Z,12.10
2022-08-30T04:11:43.259Z,12.10
2022-08-30T04:14:10.094Z,12.10
2022-08-30T04:16:36.918Z,12.10
2022-08-30T04:19:04.053Z,12.10
2022-08-30T04:21:31.034Z,12.10
2022-08-30T04:23:57.917Z,12.00
2022-08-30T04:26:29.282Z,12.00
2022-08-30T04:28:56.583Z,12.00
2022-08-30T04:31:23.698Z,12.00
2022-08-30T04:33:50.695Z,12.00
2022-08-30T04:36:17.566Z,12.00
2022-08-30T04:38:44.343Z,12.00
2022-08-30T04:41:16.296Z,12.00
2022-08-30T04:43:49.083Z,12.00
2022-08-30T04:46:16.441Z,12.00
2022-08-30T04:48:43.429Z,12.00
2022-08-30T04:51:14.111Z,12.00
2022-08-30T04:53:43.878Z,12.00
2022-08-30T04:56:13.388Z,12.00
2022-08-30T04:58:40.149Z,12.00
2022-08-30T05:01:12.401Z,11.90
2022-08-30T05:03:41.082Z,11.90
2022-08-30T05:06:07.968Z,11.90
2022-08-30T05:08:34.795Z,11.90
2022-08-30T05:11:04.678Z,11.90
2022-08-30T05:13:35.771Z,12.00
2022-08-30T05:16:06.237Z,12.00
2022-08-30T05:18:33.476Z,12.00
2022-08-30T05:21:08.921Z,12.00
2022-08-30T05:23:38.749Z,12.00
2022-08-30T05:26:12.131Z,12.10
2022-08-30T05:28:39.606Z,12.10
2022-08-30T05:31:15.483Z,12.20
2022-08-30T05:33:43.673Z,12.20
2022-08-30T05:36:11.885Z,12.30
2022-08-30T05:38:39.294Z,12.30
2022-08-30T05:41:10.750Z,12.30
2022-08-30T05:43:38.906Z,12.40
2022-08-30T05:46:11.400Z,12.40
2022-08-30T05:48:40.680Z,12.40
2022-08-30T05:51:17.577Z,12.50
2022-08-30T05:53:45.674Z,12.50
2022-08-30T05:56:14.712Z,12.60
2022-08-30T05:58:42.019Z,12.60
2022-08-30T06:01:18.697Z,12.70
2022-08-30T06:03:45.482Z,12.70
2022-08-30T06:06:12.263Z,12.80
2022-08-30T06:08:39.034Z,12.90
2022-08-30T06:11:05.885Z,12.90
2022-08-30T06:13:32.694Z,13.00
2022-08-30T06:15:59.587Z,13.10
2022-08-30T06:18:28.407Z,13.30
2022-08-30T06:20:55.706Z,13.40
2022-08-30T06:23:22.827Z,13.60
2022-08-30T06:25:49.644Z,13.80
2022-08-30T06:28:16.948Z,14.00
2022-08-30T06:30:44.981Z,14.20
2022-08-30T06:33:13.891Z,14.40
2022-08-30T06:35:56.825Z,14.60
2022-08-30T06:38:26.108Z,14.90
2022-08-30T06:40:52.890Z,15.10
2022-08-30T06:43:19.854Z,15.20
2022-08-30T06:45:46.713Z,15.30
2022-08-30T06:48:14.740Z,15.60
2022-08-30T06:50:42.213Z,15.80
2022-08-30T06:53:09.903Z,15.90
2022-08-30T06:55:37.424Z,16.00
2022-08-30T06:58:04.534Z,16.20
2022-08-30T07:00:31.380Z,16.40
2022-08-30T07:02:58.893Z,16.50
2022-08-30T07:05:25.799Z,16.60
2022-08-30T07:07:55.471Z,16.70
2022-08-30T07:10:22.294Z,16.70
2022-08-30T07:12:49.358Z,16.80
2022-08-30T07:15:16.438Z,16.90
2022-08-30T07:18:01.775Z,17.00
2022-08-30T07:20:40.024Z,17.10
2022-08-30T07:23:08.620Z,17.20
2022-08-30T07:25:39.819Z,17.30
2022-08-30T07:28:07.904Z,17.40
2022-08-30T07:30:35.200Z,17.50
2022-08-30T07:33:02.268Z,17.60
2022-08-30T07:35:29.065Z,17.70
2022-08-30T07:37:55.885Z,17.70
2022-08-30T07:40:22.783Z,17.80
2022-08-30T07:42:49.735Z,17.90
2022-08-30T07:45:16.930Z,17.90
2022-08-30T07:47:43.783Z,17.90
2022-08-30T07:50:10.764Z,18.00
2022-08-30T07:55:10.064Z,18.00
2022-08-30T07:57:37.109Z,18.00
2022-08-30T08:00:05.180Z,18.00
2022-08-30T08:02:32.942Z,18.00
2022-08-30T08:05:00.779Z,18.00
2022-08-30T08:07:27.633Z,18.00
2022-08-30T08:09:54.501Z,18.00
2022-08-30T08:12:21.325Z,18.10
2022-08-30T08:14:48.188Z,18.20
2022-08-30T08:17:15.000Z,18.20
2022-08-30T08:19:41.826Z,18.30
2022-08-30T08:22:20.626Z,18.40
2022-08-30T08:24:48.957Z,18.30
2022-08-30T08:27:16.484Z,18.20
2022-08-30T08:29:43.355Z,18.20
2022-08-30T08:32:10.225Z,18.10
2022-08-30T08:34:37.395Z,18.10
2022-08-30T08:37:04.426Z,18.10
2022-08-30T08:39:31.329Z,18.10
2022-08-30T08:42:04.328Z,18.20
2022-08-30T08:44:34.446Z,18.20
2022-08-30T08:47:22.732Z,18.20
2022-08-30T08:49:51.724Z,18.30
2022-08-30T08:52:54.953Z,18.20
2022-08-30T08:55:22.783Z,18.30
2022-08-30T08:57:49.952Z,18.40
2022-08-30T09:00:17.003Z,18.50
2022-08-30T09:02:47.415Z,18.60
2022-08-30T09:05:22.090Z,18.80
2022-08-30T09:07:54.249Z,18.70
2022-08-30T09:10:40.415Z,18.80
2022-08-30T09:13:08.344Z,18.90
2022-08-30T09:15:40.947Z,19.00
2022-08-30T09:18:19.186Z,19.10
2022-08-30T09:20:50.392Z,19.20
2022-08-30T09:23:29.989Z,19.10
2022-08-30T09:26:05.614Z,19.20
2022-08-30T09:28:49.471Z,19.10
2022-08-30T09:31:19.458Z,19.20
2022-08-30T09:34:06.237Z,19.30
2022-08-30T09:37:03.069Z,19.30
2022-08-30T09:39:37.407Z,19.30
2022-08-30T09:42:14.367Z,19.20
2022-08-30T09:47:24.175Z,19.10
2022-08-30T09:52:12.396Z,18.90
2022-08-30T09:55:19.873Z,18.90
2022-08-30T09:58:05.837Z,18.90
2022-08-30T10:00:37.454Z,19.00
2022-08-30T10:03:43.731Z,19.10
2022-08-30T10:06:19.547Z,19.10
2022-08-30T10:08:51.588Z,19.00
2022-08-30T10:11:24.461Z,19.00
2022-08-30T10:14:19.606Z,19.30
2022-08-30T10:16:58.378Z,19.70
2022-08-30T10:19:47.271Z,20.00
2022-08-30T10:22:15.578Z,20.30
2022-08-30T10:24:50.192Z,20.40
2022-08-30T10:30:13.849Z,20.10
2022-08-30T10:33:28.749Z,20.00
2022-08-30T10:36:02.635Z,20.10
2022-08-30T10:38:37.269Z,19.90
2022-08-30T10:41:33.394Z,20.00
2022-08-30T10:44:26.811Z,20.10
2022-08-30T10:47:23.441Z,20.00
2022-08-30T10:49:55.217Z,19.80
2022-08-30T10:52:54.498Z,19.80
2022-08-30T10:55:22.199Z,19.60
2022-08-30T10:57:50.080Z,19.70
2022-08-30T11:00:28.249Z,20.00
2022-08-30T11:03:36.835Z,20.10
2022-08-30T11:06:12.101Z,20.00
2022-08-30T11:08:52.086Z,19.90
2022-08-30T11:11:55.897Z,20.20
2022-08-30T11:14:25.470Z,20.40
2022-08-30T11:17:00.204Z,20.50
2022-08-30T11:19:41.442Z,20.60
2022-08-30T11:22:38.144Z,20.80
2022-08-30T11:25:15.928Z,20.80
2022-08-30T11:27:53.252Z,20.90
2022-08-30T11:30:26.970Z,21.00
2022-08-30T11:33:24.711Z,21.10
2022-08-30T11:35:53.585Z,21.20
2022-08-30T11:38:26.577Z,21.30
2022-08-30T11:40:56.597Z,21.10
2022-08-30T11:43:36.558Z,20.70
2022-08-30T11:46:26.913Z,20.70
2022-08-30T11:48:59.365Z,20.80
2022-08-30T11:51:38.430Z,20.90
2022-08-30T11:54:20.509Z,21.00
2022-08-30T11:56:54.593Z,21.10
2022-08-30T11:59:55.485Z,21.10
2022-08-30T12:02:44.881Z,20.90
2022-08-30T12:05:53.175Z,20.90
2022-08-30T12:08:21.314Z,20.90
2022-08-30T12:11:02.514Z,20.80
2022-08-30T12:13:37.256Z,20.60
2022-08-30T12:16:23.950Z,20.60
2022-08-30T12:18:53.864Z,20.60
2022-08-30T12:21:22.221Z,20.60
2022-08-30T12:23:52.485Z,20.50
2022-08-30T12:26:26.123Z,20.60
2022-08-30T12:29:13.195Z,20.60
2022-08-30T12:31:45.899Z,20.50
2022-08-30T12:34:43.551Z,20.40
2022-08-30T12:37:28.673Z,20.50
2022-08-30T12:40:18.651Z,20.30
2022-08-30T12:43:01.052Z,20.40
2022-08-30T12:45:43.072Z,20.50
2022-08-30T12:48:12.317Z,20.40
2022-08-30T12:50:53.057Z,20.40
2022-08-30T12:53:32.024Z,20.30
2022-08-30T12:56:11.067Z,20.00
2022-08-30T12:58:51.639Z,19.80
2022-08-30T13:01:31.265Z,19.70
2022-08-30T13:03:58.391Z,19.50
2022-08-30T13:06:39.826Z,19.40
2022-08-30T13:09:06.999Z,19.30
2022-08-30T13:11:34.336Z,19.30
2022-08-30T13:14:29.674Z,19.20
2022-08-30T13:17:21.439Z,19.30
2022-08-30T13:20:09.521Z,19.50
2022-08-30T13:22:38.573Z,19.80
2022-08-30T13:25:07.849Z,19.90
2022-08-30T13:35:13.449Z,19.70
2022-08-30T13:37:50.090Z,19.70
2022-08-30T13:40:19.744Z,19.80
2022-08-30T13:42:46.889Z,19.80
2022-08-30T13:48:11.439Z,19.80
2022-08-30T13:50:38.970Z,19.70
2022-08-30T13:53:05.981Z,19.70
2022-08-30T13:55:34.183Z,19.60
2022-08-30T13:58:05.365Z,19.60
2022-08-30T14:00:36.766Z,19.70
2022-08-30T14:03:05.579Z,19.70
2022-08-30T14:06:09.860Z,19.60
2022-08-30T14:08:49.213Z,19.60
2022-08-30T14:11:19.388Z,19.70
2022-08-30T14:16:35.188Z,19.70
2022-08-30T14:19:02.408Z,19.80
2022-08-30T14:21:29.465Z,19.80
2022-08-30T14:23:57.954Z,19.80
2022-08-30T14:26:33.069Z,19.70
2022-08-30T14:29:06.093Z,19.70
2022-08-30T14:31:40.735Z,19.60
2022-08-30T14:34:09.837Z,19.60
2022-08-30T14:36:41.398Z,19.50
2022-08-30T14:39:11.951Z,19.50
2022-08-30T14:44:54.796Z,19.50
2022-08-30T14:47:20.478Z,19.60
2022-08-30T14:49:47.560Z,19.60
2022-08-30T14:52:14.647Z,19.50
2022-08-30T14:54:41.481Z,19.50
2022-08-30T14:57:08.396Z,19.50
2022-08-30T14:59:35.233Z,19.60
2022-08-30T15:02:03.301Z,19.50
2022-08-30T15:04:30.297Z,19.50
2022-08-30T15:06:57.988Z,19.40
2022-08-30T15:09:25.549Z,19.40
2022-08-30T15:11:55.112Z,19.40
2022-08-30T15:14:22.598Z,19.30
2022-08-30T15:16:49.500Z,19.30
2022-08-30T15:19:17.681Z,19.30
2022-08-30T15:21:48.411Z,19.30
2022-08-30T15:24:19.034Z,19.30
2022-08-30T15:26:51.997Z,19.20
2022-08-30T15:29:20.097Z,19.20
2022-08-30T15:31:49.681Z,19.20
2022-08-30T15:34:19.177Z,19.10
2022-08-30T15:36:47.008Z,19.10
2022-08-30T15:39:15.313Z,19.00
2022-08-30T15:41:44.312Z,19.00
2022-08-30T15:44:12.305Z,19.00
2022-08-30T15:46:43.120Z,19.00
2022-08-30T15:49:14.460Z,19.00
2022-08-30T15:51:46.084Z,18.90
2022-08-30T15:54:15.610Z,18.90
2022-08-30T15:56:44.219Z,18.80
2022-08-30T15:59:12.109Z,18.70
2022-08-30T16:01:39.187Z,18.60
2022-08-30T16:04:06.243Z,18.50
2022-08-30T16:06:35.385Z,18.40
2022-08-30T16:09:03.770Z,18.30
2022-08-30T16:11:32.018Z,18.30
2022-08-30T16:14:09.345Z,18.30
2022-08-30T16:16:41.010Z,18.20
2022-08-30T16:19:11.508Z,18.20
2022-08-30T16:21:41.832Z,18.10
2022-08-30T16:24:11.499Z,18.10
2022-08-30T16:26:49.779Z,18.10
2022-08-30T16:29:25.327Z,18.00
2022-08-30T16:31:54.186Z,18.00
2022-08-30T16:34:22.933Z,17.90
2022-08-30T16:36:50.295Z,17.90
2022-08-30T16:39:25.054Z,17.80
2022-08-30T16:41:54.464Z,17.80
2022-08-30T16:44:29.805Z,17.80
2022-08-30T16:46:59.172Z,17.70
2022-08-30T16:49:32.582Z,17.70
2022-08-30T16:52:03.371Z,17.70
2022-08-30T16:54:32.138Z,17.70
2022-08-30T16:57:00.409Z,17.60
2022-08-30T16:59:27.896Z,17.60
2022-08-30T17:02:01.164Z,17.60
2022-08-30T17:04:28.432Z,17.60
2022-08-30T17:06:55.512Z,17.50
2022-08-30T17:09:25.757Z,17.40
2022-08-30T17:52:40.377Z,16.10
2022-08-30T17:55:22.988Z,16.00
2022-08-30T18:05:26.640Z,15.50
2022-08-30T18:08:36.801Z,15.40
2022-08-30T18:11:09.469Z,15.30
2022-08-30T18:13:51.479Z,15.20
2022-08-30T18:17:42.599Z,15.10
2022-08-30T18:20:15.175Z,15.00
2022-08-30T18:23:02.805Z,14.90
2022-08-30T21:29:31.902Z,11.50
2022-08-30T21:37:36.284Z,11.40
2022-08-30T21:40:48.758Z,11.40
2022-08-30T23:04:06.870Z,10.80
2022-08-30T23:06:33.920Z,10.70
2022-08-30T23:09:01.434Z,10.70
2022-08-30T23:11:28.548Z,10.70
2022-08-30T23:13:57.631Z,10.70
2022-08-30T23:16:24.672Z,10.70
2022-08-30T23:18:51.633Z,10.60
2022-08-30T23:21:25.418Z,10.60
2022-08-30T23:24:11.834Z,10.60
2022-08-30T23:26:57.917Z,10.60
2022-08-30T23:29:44.468Z,10.50
2022-08-30T23:32:30.335Z,10.50
2022-08-30T23:35:15.793Z,10.50
2022-08-30T23:38:01.115Z,10.50
2022-08-30T23:40:46.639Z,10.50
2022-08-30T23:43:32.394Z,10.50
2022-08-30T23:46:19.423Z,10.50
2022-08-30T23:49:06.751Z,10.40
2022-08-30T23:51:53.375Z,10.40
2022-08-30T23:54:38.773Z,10.40
2022-08-30T23:57:24.338Z,10.40
